Boston, Massachusetts
Traffic Map
Current Weather Conditions
Boston, Massachusetts
Overcast
Overcast
36°
Feels Like: 36°
Wind Chill: 36° Ceiling: 15000
Heat Index: 36° Visibility: 10mi
Dew Point: 16° Wind: 0mph
Humidity: 44% Direction: ° ()
Pressure: 30.03in Gusts: 0mph
Raw Report DataKBOS 120154Z 00000KT 10SM FEW045 OVC150 02/M09 A3003 RMK AO2 SLP167 T00221089
Traffic Incident Summary
Active as of:
Severity:
Category:
InformationThere was an issue retrieving the traffic information for this location. Please try a different location or try again shortly.
Advertisements